createdAt,value
2023-02-03T00:00:19.993Z,16.60
2023-02-03T00:01:51.553Z,18.76
2023-02-03T00:03:33.060Z,23.69
2023-02-03T00:05:04.435Z,23.22
2023-02-03T00:06:36.089Z,30.86
2023-02-03T00:08:07.472Z,20.18
2023-02-03T00:09:38.992Z,20.86
2023-02-03T00:11:10.400Z,25.35
2023-02-03T00:12:41.786Z,24.69
2023-02-03T00:14:13.111Z,18.39
2023-02-03T00:15:49.579Z,19.54
2023-02-03T00:17:20.981Z,19.06
2023-02-03T00:18:52.263Z,18.53
2023-02-03T00:20:23.841Z,26.93
2023-02-03T00:21:55.215Z,22.20
2023-02-03T00:23:26.507Z,20.43
2023-02-03T00:24:58.138Z,26.46
2023-02-03T00:26:29.636Z,15.66
2023-02-03T00:28:01.158Z,14.78
2023-02-03T00:29:32.460Z,17.09
2023-02-03T00:31:03.859Z,26.67
2023-02-03T00:32:35.340Z,26.46
2023-02-03T00:34:06.729Z,18.13
2023-02-03T00:35:38.278Z,26.79
2023-02-03T00:37:09.681Z,28.47
2023-02-03T00:38:41.035Z,19.74
2023-02-03T00:40:12.393Z,21.42
2023-02-03T00:41:43.960Z,28.11
2023-02-03T00:43:15.246Z,19.00
2023-02-03T00:44:46.543Z,24.20
2023-02-03T00:46:17.958Z,17.14
2023-02-03T00:47:49.277Z,24.29
2023-02-03T00:49:20.539Z,22.76
2023-02-03T00:50:51.886Z,16.41
2023-02-03T00:52:23.187Z,19.88
2023-02-03T00:53:54.591Z,20.76
2023-02-03T00:55:26.381Z,22.54
2023-02-03T00:56:57.718Z,22.76
2023-02-03T00:58:29.098Z,19.58
2023-02-03T01:00:00.399Z,25.99
2023-02-03T01:01:36.745Z,23.27
2023-02-03T01:03:08.163Z,21.13
2023-02-03T01:04:39.653Z,26.05
2023-02-03T01:06:10.930Z,19.21
2023-02-03T01:07:42.486Z,24.10
2023-02-03T01:09:13.799Z,20.88
2023-02-03T01:10:45.478Z,24.74
2023-02-03T01:12:16.913Z,23.45
2023-02-03T01:13:48.211Z,20.72
2023-02-03T01:15:19.659Z,21.52
2023-02-03T01:16:51.022Z,19.77
2023-02-03T01:18:22.396Z,14.81
2023-02-03T01:19:53.720Z,21.42
2023-02-03T01:21:25.040Z,29.06
2023-02-03T01:22:56.720Z,21.09
2023-02-03T01:24:28.086Z,17.96
2023-02-03T01:25:59.495Z,23.97
2023-02-03T01:27:30.910Z,22.79
2023-02-03T01:29:02.219Z,29.85
2023-02-03T01:30:33.717Z,26.70
2023-02-03T01:32:05.020Z,28.02
2023-02-03T01:33:36.374Z,19.96
2023-02-03T01:35:07.706Z,25.58
2023-02-03T01:36:39.212Z,22.63
2023-02-03T01:38:10.710Z,22.04
2023-02-03T01:39:42.154Z,19.62
2023-02-03T01:41:13.558Z,19.10
2023-02-03T01:42:45.001Z,19.39
2023-02-03T01:44:16.315Z,17.51
2023-02-03T01:45:47.842Z,26.68
2023-02-03T01:47:19.534Z,18.50
2023-02-03T01:48:51.168Z,20.84
2023-02-03T01:50:22.562Z,21.46
2023-02-03T01:51:53.963Z,19.15
2023-02-03T01:53:25.301Z,26.53
2023-02-03T01:54:56.828Z,23.83
2023-02-03T01:56:28.116Z,18.17
2023-02-03T01:57:59.510Z,20.92
2023-02-03T01:59:30.885Z,20.18
2023-02-03T02:01:02.183Z,22.21
2023-02-03T02:02:33.482Z,16.49
2023-02-03T02:04:04.984Z,18.84
2023-02-03T02:05:36.305Z,22.25
2023-02-03T02:07:07.655Z,21.93
2023-02-03T02:08:39.015Z,19.04
2023-02-03T02:10:10.461Z,19.80
2023-02-03T02:11:42.045Z,19.00
2023-02-03T02:13:13.423Z,19.04
2023-02-03T02:14:44.959Z,21.78
2023-02-03T02:16:16.629Z,20.71
2023-02-03T02:17:48.103Z,23.26
2023-02-03T02:19:19.611Z,25.54
2023-02-03T02:20:50.911Z,26.44
2023-02-03T02:22:22.369Z,22.12
2023-02-03T02:23:53.762Z,23.81
2023-02-03T02:25:25.073Z,21.73
2023-02-03T02:26:56.743Z,25.80
2023-02-03T02:28:28.087Z,22.89
2023-02-03T02:29:59.507Z,21.24
2023-02-03T02:31:31.179Z,23.50
2023-02-03T02:33:02.491Z,20.60
2023-02-03T02:34:33.831Z,17.11
2023-02-03T02:36:05.225Z,21.21
2023-02-03T02:37:36.550Z,21.99
2023-02-03T02:39:08.136Z,13.80
2023-02-03T02:40:39.689Z,19.19
2023-02-03T02:42:10.984Z,14.20
2023-02-03T02:43:42.411Z,13.96
2023-02-03T02:45:13.814Z,18.00
2023-02-03T02:46:45.256Z,21.12
2023-02-03T02:48:16.563Z,18.51
2023-02-03T02:49:47.980Z,18.41
2023-02-03T02:51:19.279Z,11.73
2023-02-03T02:52:50.729Z,16.14
2023-02-03T02:54:22.040Z,15.85
2023-02-03T02:55:53.380Z,11.77
2023-02-03T02:57:24.685Z,12.72
2023-02-03T02:58:56.017Z,18.57
2023-02-03T03:00:27.734Z,11.40
2023-02-03T03:01:59.271Z,14.03
2023-02-03T03:03:30.688Z,10.90
2023-02-03T03:05:02.174Z,15.43
2023-02-03T03:06:33.715Z,16.30
2023-02-03T03:08:05.037Z,12.76
2023-02-03T03:09:36.361Z,18.39
2023-02-03T03:11:07.645Z,16.46
2023-02-03T03:12:39.037Z,14.89
2023-02-03T03:14:10.463Z,15.90
2023-02-03T03:15:42.141Z,15.70
2023-02-03T03:17:13.392Z,18.24
2023-02-03T03:18:44.739Z,12.05
2023-02-03T03:20:16.285Z,17.03
2023-02-03T03:21:47.700Z,15.88
2023-02-03T03:23:19.032Z,15.56
2023-02-03T03:24:50.350Z,15.42
2023-02-03T03:26:21.750Z,13.63
2023-02-03T03:27:53.273Z,13.13
2023-02-03T03:29:24.686Z,12.50
2023-02-03T03:30:56.205Z,13.88
2023-02-03T03:32:27.629Z,12.82
2023-02-03T03:33:58.953Z,16.08
2023-02-03T03:35:30.472Z,18.82
2023-02-03T03:37:01.885Z,16.95
2023-02-03T03:38:33.200Z,16.17
2023-02-03T03:40:04.491Z,16.44
2023-02-03T03:41:36.048Z,14.66
2023-02-03T03:43:07.726Z,15.55
2023-02-03T03:44:39.214Z,16.39
2023-02-03T03:46:11.033Z,15.57
2023-02-03T03:47:42.336Z,15.10
2023-02-03T03:49:13.832Z,11.82
2023-02-03T03:50:45.259Z,14.13
2023-02-03T03:52:16.700Z,11.86
2023-02-03T03:53:48.410Z,14.19
2023-02-03T03:55:19.859Z,12.58
2023-02-03T03:56:51.159Z,10.90
2023-02-03T03:58:22.488Z,8.58
2023-02-03T03:59:53.937Z,10.49
2023-02-03T04:01:25.509Z,8.54
2023-02-03T04:02:56.924Z,10.04
2023-02-03T04:04:33.203Z,12.77
2023-02-03T04:06:04.534Z,10.18
2023-02-03T04:07:35.859Z,10.46
2023-02-03T04:09:07.364Z,10.85
2023-02-03T04:10:38.775Z,11.05
2023-02-03T04:12:10.368Z,6.31
2023-02-03T04:13:41.792Z,8.96
2023-02-03T04:15:13.139Z,9.83
2023-02-03T04:16:44.428Z,10.91
2023-02-03T04:18:15.768Z,12.14
2023-02-03T04:19:47.227Z,11.80
2023-02-03T04:21:53.703Z,10.98
2023-02-03T04:23:56.866Z,8.14
2023-02-03T04:25:38.421Z,8.09
2023-02-03T04:27:10.428Z,8.78
2023-02-03T04:28:42.787Z,11.58
2023-02-03T04:30:14.212Z,6.26
2023-02-03T04:31:45.629Z,7.19
2023-02-03T04:33:27.026Z,9.63
2023-02-03T04:35:29.750Z,11.28
2023-02-03T04:37:01.042Z,9.35
2023-02-03T04:38:32.435Z,10.57
2023-02-03T04:40:03.796Z,10.18
2023-02-03T04:41:35.116Z,9.88
2023-02-03T04:43:06.410Z,10.06
2023-02-03T04:44:47.990Z,8.47
2023-02-03T04:46:42.729Z,9.20
2023-02-03T04:48:34.191Z,7.58
2023-02-03T04:50:05.791Z,8.57
2023-02-03T04:52:02.108Z,6.88
2023-02-03T04:54:33.517Z,7.52
2023-02-03T04:56:05.032Z,11.79
2023-02-03T04:57:49.736Z,9.93
2023-02-03T04:59:21.473Z,8.81
2023-02-03T05:00:54.210Z,9.16
2023-02-03T05:02:48.485Z,8.13
2023-02-03T05:04:20.550Z,11.18
2023-02-03T05:05:52.344Z,6.58
2023-02-03T05:07:23.914Z,9.45
2023-02-03T05:08:55.669Z,9.95
2023-02-03T05:11:02.541Z,7.14
2023-02-03T05:12:34.363Z,10.49
2023-02-03T05:14:05.897Z,13.59
2023-02-03T05:15:37.820Z,9.96
2023-02-03T05:17:14.781Z,8.04
2023-02-03T05:18:46.283Z,7.54
2023-02-03T05:20:17.805Z,8.43
2023-02-03T05:21:49.127Z,6.34
2023-02-03T05:23:20.566Z,11.03
2023-02-03T05:24:52.154Z,9.79
2023-02-03T05:26:49.928Z,9.40
2023-02-03T05:28:21.367Z,7.57
2023-02-03T05:29:52.680Z,9.05
2023-02-03T05:31:49.199Z,10.24
2023-02-03T05:33:25.985Z,8.98
2023-02-03T05:34:57.731Z,9.39
2023-02-03T05:36:29.345Z,8.02
2023-02-03T05:38:00.959Z,9.98
2023-02-03T05:39:32.696Z,4.72
2023-02-03T05:41:04.758Z,4.70
2023-02-03T05:42:36.365Z,7.21
2023-02-03T05:44:23.325Z,9.43
2023-02-03T05:46:32.175Z,7.01
2023-02-03T05:48:04.217Z,9.04
2023-02-03T05:49:36.287Z,10.18
2023-02-03T05:51:12.975Z,10.49
2023-02-03T05:52:49.312Z,8.09
2023-02-03T05:54:20.610Z,10.63
2023-02-03T05:56:24.687Z,7.16
2023-02-03T05:58:29.576Z,8.39
2023-02-03T06:00:46.617Z,7.02
2023-02-03T06:02:43.655Z,8.57
2023-02-03T06:04:15.341Z,8.75
2023-02-03T06:05:46.936Z,8.68
2023-02-03T06:07:18.613Z,7.95
2023-02-03T06:08:50.025Z,9.42
2023-02-03T06:10:21.597Z,6.30
2023-02-03T06:11:53.192Z,10.15
2023-02-03T06:13:24.801Z,7.74
2023-02-03T06:14:57.924Z,9.38
2023-02-03T06:16:29.784Z,7.19
2023-02-03T06:18:01.902Z,9.96
2023-02-03T06:19:33.201Z,8.98
2023-02-03T06:21:04.800Z,9.53
2023-02-03T06:22:36.097Z,9.67
2023-02-03T06:24:07.390Z,8.53
2023-02-03T06:25:38.822Z,9.50
2023-02-03T06:27:10.224Z,7.36
2023-02-03T06:28:41.559Z,7.87
2023-02-03T06:30:13.054Z,8.75
2023-02-03T06:31:44.648Z,7.96
2023-02-03T06:33:16.146Z,7.78
2023-02-03T06:34:47.418Z,8.02
2023-02-03T06:36:18.786Z,7.33
2023-02-03T06:37:50.212Z,6.76
2023-02-03T06:39:21.640Z,8.87
2023-02-03T06:40:53.435Z,8.13
2023-02-03T06:42:24.877Z,6.55
2023-02-03T06:43:56.190Z,8.31
2023-02-03T06:45:27.598Z,8.77
2023-02-03T06:46:59.129Z,5.73
2023-02-03T06:48:30.623Z,9.02
2023-02-03T06:50:01.964Z,8.31
2023-02-03T06:51:33.297Z,10.62
2023-02-03T06:53:10.921Z,9.75
2023-02-03T06:54:42.611Z,9.65
2023-02-03T06:56:13.878Z,10.78
2023-02-03T06:57:45.254Z,9.26
2023-02-03T06:59:16.561Z,9.28
2023-02-03T07:00:47.978Z,9.71
2023-02-03T07:02:19.629Z,10.40
2023-02-03T07:03:51.035Z,9.91
2023-02-03T07:05:22.437Z,8.67
2023-02-03T07:06:54.068Z,9.63
2023-02-03T07:08:26.424Z,12.21
2023-02-03T07:09:57.925Z,6.55
2023-02-03T07:11:29.408Z,7.57
2023-02-03T07:13:00.724Z,7.16
2023-02-03T07:14:32.126Z,9.69
2023-02-03T07:16:03.625Z,9.84
2023-02-03T07:17:35.337Z,8.73
2023-02-03T07:19:06.700Z,9.11
2023-02-03T07:20:38.009Z,8.32
2023-02-03T07:22:09.246Z,8.36
2023-02-03T07:23:40.582Z,8.30
2023-02-03T07:25:11.987Z,9.97
2023-02-03T07:26:43.311Z,9.07
2023-02-03T07:28:14.659Z,7.93
2023-02-03T07:29:46.023Z,10.20
2023-02-03T07:31:19.571Z,8.62
2023-02-03T07:32:53.161Z,8.92
2023-02-03T07:34:24.444Z,7.73
2023-02-03T07:35:55.860Z,10.01
2023-02-03T07:37:27.185Z,10.97
2023-02-03T07:38:58.581Z,12.03
2023-02-03T07:40:30.209Z,12.33
2023-02-03T07:42:01.815Z,9.36
2023-02-03T07:43:33.141Z,12.01
2023-02-03T07:45:04.542Z,13.48
2023-02-03T07:46:36.013Z,12.35
2023-02-03T07:48:07.655Z,9.51
2023-02-03T07:49:39.015Z,12.23
2023-02-03T07:51:10.407Z,10.77
2023-02-03T07:52:41.815Z,13.90
2023-02-03T07:54:13.236Z,13.67
2023-02-03T07:55:44.721Z,7.97
2023-02-03T07:57:16.177Z,6.19
2023-02-03T07:58:47.451Z,6.92
2023-02-03T08:00:18.771Z,7.03
2023-02-03T08:01:50.184Z,9.75
2023-02-03T08:03:22.206Z,7.56
2023-02-03T08:04:53.706Z,10.28
2023-02-03T08:06:25.026Z,6.68
2023-02-03T08:07:56.369Z,7.75
2023-02-03T08:09:27.703Z,8.97
2023-02-03T08:10:58.989Z,9.44
2023-02-03T08:12:30.388Z,6.81
2023-02-03T08:14:01.772Z,7.05
2023-02-03T08:15:33.146Z,10.24
2023-02-03T08:17:04.988Z,10.94
2023-02-03T08:18:36.574Z,7.56
2023-02-03T08:20:07.986Z,6.29
2023-02-03T08:21:39.330Z,8.24
2023-02-03T08:23:10.608Z,8.11
2023-02-03T08:24:42.071Z,11.26
2023-02-03T08:26:13.518Z,9.61
2023-02-03T08:27:45.862Z,7.34
2023-02-03T08:29:17.290Z,7.88
2023-02-03T08:30:49.135Z,8.39
2023-02-03T08:32:21.054Z,12.81
2023-02-03T08:33:52.963Z,9.61
2023-02-03T08:35:24.283Z,8.65
2023-02-03T08:36:57.129Z,6.80
2023-02-03T08:38:28.661Z,8.53
2023-02-03T08:40:00.658Z,8.55
2023-02-03T08:41:56.417Z,7.14
2023-02-03T08:43:30.599Z,6.37
2023-02-03T08:45:04.052Z,7.56
2023-02-03T08:46:36.874Z,8.05
2023-02-03T08:48:13.714Z,7.09
2023-02-03T08:49:45.333Z,8.62
2023-02-03T08:51:21.907Z,10.27
2023-02-03T08:52:53.330Z,9.54
2023-02-03T08:54:25.317Z,6.74
2023-02-03T08:56:16.952Z,8.08
2023-02-03T08:57:53.784Z,9.02
2023-02-03T08:59:25.511Z,7.26
2023-02-03T09:01:02.081Z,8.99
2023-02-03T09:02:33.770Z,8.72
2023-02-03T09:04:05.443Z,8.11
2023-02-03T09:05:37.293Z,10.49
2023-02-03T09:07:09.102Z,8.79
2023-02-03T09:08:45.651Z,8.14
2023-02-03T09:10:18.311Z,5.60
2023-02-03T09:11:49.889Z,9.42
2023-02-03T09:13:21.588Z,9.09
2023-02-03T09:14:53.805Z,7.80
2023-02-03T09:16:25.326Z,8.95
2023-02-03T09:17:56.960Z,7.55
2023-02-03T09:19:28.499Z,10.90
2023-02-03T09:21:00.166Z,7.39
2023-02-03T09:22:32.046Z,10.68
2023-02-03T09:24:04.788Z,10.09
2023-02-03T09:25:36.129Z,7.44
2023-02-03T09:27:07.640Z,10.47
2023-02-03T09:28:43.967Z,10.31
2023-02-03T09:30:25.698Z,11.00
2023-02-03T09:31:57.135Z,9.11
2023-02-03T09:33:28.467Z,13.05
2023-02-03T09:34:59.899Z,9.60
2023-02-03T09:36:31.326Z,10.19
2023-02-03T09:38:02.656Z,8.37
2023-02-03T09:39:33.961Z,13.32
2023-02-03T09:41:11.553Z,9.27
2023-02-03T09:42:43.512Z,9.70
2023-02-03T09:44:14.801Z,8.71
2023-02-03T09:46:01.774Z,7.46
2023-02-03T09:47:34.674Z,7.80
2023-02-03T09:49:06.168Z,9.06
2023-02-03T09:50:37.503Z,8.74
2023-02-03T09:52:08.756Z,10.84
2023-02-03T09:54:10.023Z,7.40
2023-02-03T09:55:41.448Z,8.32
2023-02-03T09:57:50.921Z,9.11
2023-02-03T09:59:22.953Z,10.19
2023-02-03T10:01:00.199Z,10.63
2023-02-03T10:02:32.126Z,6.83
2023-02-03T10:04:03.964Z,8.45
2023-02-03T10:05:35.203Z,9.39
2023-02-03T10:07:06.819Z,9.88
2023-02-03T10:08:38.191Z,9.65
2023-02-03T10:10:09.575Z,9.35
2023-02-03T10:11:41.013Z,12.37
2023-02-03T10:13:12.590Z,12.93
2023-02-03T10:14:43.941Z,12.19
2023-02-03T10:16:15.300Z,7.33
2023-02-03T10:17:47.309Z,9.68
2023-02-03T10:19:19.018Z,12.11
2023-02-03T10:20:50.451Z,12.85
2023-02-03T10:22:21.825Z,8.06
2023-02-03T10:23:53.121Z,10.28
2023-02-03T10:25:24.457Z,9.40
2023-02-03T10:27:00.944Z,13.14
2023-02-03T10:28:32.358Z,6.80
2023-02-03T10:30:03.665Z,8.86
2023-02-03T10:31:35.285Z,10.13
2023-02-03T10:33:07.038Z,12.53
2023-02-03T10:34:38.635Z,13.39
2023-02-03T10:36:10.225Z,14.78
2023-02-03T10:37:41.643Z,11.92
2023-02-03T10:39:21.696Z,15.00
2023-02-03T10:40:53.666Z,11.45
2023-02-03T10:42:25.051Z,10.70
2023-02-03T10:43:57.656Z,12.58
2023-02-03T10:45:29.205Z,10.97
2023-02-03T10:47:00.921Z,11.83
2023-02-03T10:48:32.333Z,12.86
2023-02-03T10:50:03.653Z,11.53
2023-02-03T10:51:35.072Z,11.79
2023-02-03T10:53:06.495Z,13.58
2023-02-03T10:54:38.167Z,12.24
2023-02-03T10:56:09.461Z,11.25
2023-02-03T10:57:40.782Z,11.09
2023-02-03T10:59:22.809Z,10.98
2023-02-03T11:00:54.112Z,16.22
2023-02-03T11:02:25.436Z,8.97
2023-02-03T11:03:56.714Z,14.10
2023-02-03T11:05:28.957Z,10.80
2023-02-03T11:07:00.368Z,11.45
2023-02-03T11:08:31.701Z,11.45
2023-02-03T11:10:03.039Z,12.92
2023-02-03T11:11:34.395Z,13.31
2023-02-03T11:13:05.707Z,11.07
2023-02-03T11:14:37.175Z,16.66
2023-02-03T11:16:09.368Z,12.74
2023-02-03T11:17:40.773Z,11.48
2023-02-03T11:19:12.307Z,12.26
2023-02-03T11:20:43.953Z,11.22
2023-02-03T11:22:15.339Z,9.53
2023-02-03T11:23:46.686Z,12.99
2023-02-03T11:25:18.013Z,13.69
2023-02-03T11:26:49.431Z,11.99
2023-02-03T11:28:20.874Z,10.64
2023-02-03T11:29:52.273Z,9.81
2023-02-03T11:31:24.074Z,6.87
2023-02-03T11:32:55.818Z,9.78
2023-02-03T11:34:27.402Z,11.08
2023-02-03T11:35:58.670Z,13.85
2023-02-03T11:37:30.005Z,11.00
2023-02-03T11:39:01.417Z,10.20
2023-02-03T11:40:32.754Z,9.71
2023-02-03T11:42:09.152Z,11.14
2023-02-03T11:43:45.579Z,11.68
2023-02-03T11:45:17.035Z,9.13
2023-02-03T11:46:49.679Z,9.97
2023-02-03T11:48:21.352Z,13.00
2023-02-03T11:49:52.722Z,12.56
2023-02-03T11:51:24.045Z,14.44
2023-02-03T11:52:55.685Z,10.35
2023-02-03T11:54:27.404Z,7.82
2023-02-03T11:55:58.727Z,8.43
2023-02-03T11:57:30.093Z,7.45
2023-02-03T11:59:01.466Z,12.60
2023-02-03T12:00:32.919Z,7.93
2023-02-03T12:02:04.501Z,10.31
2023-02-03T12:03:35.822Z,8.51
2023-02-03T12:05:07.103Z,12.57
2023-02-03T12:06:38.622Z,8.50
2023-02-03T12:08:10.029Z,12.21
2023-02-03T12:09:41.494Z,9.80
2023-02-03T12:11:13.008Z,12.00
2023-02-03T12:12:45.991Z,11.23
2023-02-03T12:14:17.619Z,11.28
2023-02-03T12:15:49.582Z,9.27
2023-02-03T12:17:23.672Z,8.49
2023-02-03T12:18:55.514Z,6.16
2023-02-03T12:20:27.337Z,10.27
2023-02-03T12:21:59.263Z,7.55
2023-02-03T12:23:31.381Z,9.45
2023-02-03T12:25:02.894Z,10.24
2023-02-03T12:26:34.378Z,9.76
2023-02-03T12:28:05.890Z,9.60
2023-02-03T12:29:37.422Z,10.47
2023-02-03T12:31:09.043Z,7.44
2023-02-03T12:32:40.526Z,11.27
2023-02-03T12:34:11.835Z,11.62
2023-02-03T12:35:43.414Z,9.07
2023-02-03T12:37:14.831Z,9.75
2023-02-03T12:38:46.091Z,11.68
2023-02-03T12:40:17.642Z,9.59
2023-02-03T12:41:49.793Z,7.97
2023-02-03T12:43:22.388Z,12.61
2023-02-03T12:44:54.057Z,8.17
2023-02-03T12:46:30.611Z,9.81
2023-02-03T12:48:12.228Z,10.94
2023-02-03T12:49:45.035Z,10.28
2023-02-03T12:51:16.573Z,11.37
2023-02-03T12:52:47.928Z,10.11
2023-02-03T12:54:19.310Z,11.10
2023-02-03T12:55:50.662Z,9.62
2023-02-03T12:57:21.965Z,12.37
2023-02-03T12:58:53.406Z,12.48
2023-02-03T13:00:24.755Z,12.42
2023-02-03T13:01:56.213Z,12.62
2023-02-03T13:03:27.522Z,11.23
2023-02-03T13:04:58.816Z,12.44
2023-02-03T13:06:30.148Z,13.99
2023-02-03T13:08:01.470Z,14.15
2023-02-03T13:09:33.049Z,13.17
2023-02-03T13:11:05.015Z,8.24
2023-02-03T13:12:36.351Z,10.08
2023-02-03T13:14:08.359Z,12.63
2023-02-03T13:15:39.682Z,12.82
2023-02-03T13:17:11.214Z,8.82
2023-02-03T13:18:42.505Z,7.17
2023-02-03T13:20:13.811Z,8.69
2023-02-03T13:21:45.140Z,7.33
2023-02-03T13:23:16.681Z,8.76
2023-02-03T13:24:48.110Z,7.48
2023-02-03T13:26:19.863Z,10.40
2023-02-03T13:27:56.459Z,11.30
2023-02-03T13:29:27.810Z,8.13
2023-02-03T13:30:59.280Z,9.59
2023-02-03T13:32:31.300Z,10.09
2023-02-03T13:34:02.731Z,11.22
2023-02-03T13:35:34.724Z,10.52
2023-02-03T13:37:32.758Z,9.65
2023-02-03T13:39:04.668Z,11.26
2023-02-03T13:41:06.414Z,8.22
2023-02-03T13:42:38.145Z,6.95
2023-02-03T13:44:10.007Z,10.22
2023-02-03T13:45:41.730Z,13.05
2023-02-03T13:47:13.261Z,12.16
2023-02-03T13:48:44.690Z,10.68
2023-02-03T13:50:16.144Z,14.15
2023-02-03T13:54:18.199Z,13.04
2023-02-03T13:55:59.742Z,14.96
2023-02-03T13:57:31.469Z,15.18
2023-02-03T13:59:02.864Z,16.02
2023-02-03T14:00:34.341Z,13.46
2023-02-03T14:02:06.967Z,14.26
2023-02-03T14:03:43.509Z,15.30
2023-02-03T14:05:36.247Z,16.44
2023-02-03T14:07:07.928Z,20.23
2023-02-03T14:08:39.291Z,19.79
2023-02-03T14:10:12.200Z,21.15
2023-02-03T14:11:45.895Z,16.14
2023-02-03T14:13:22.661Z,17.94
2023-02-03T14:14:54.112Z,17.05
2023-02-03T14:16:53.422Z,20.97
2023-02-03T14:18:26.340Z,20.12
2023-02-03T14:20:18.444Z,16.76
2023-02-03T14:22:05.833Z,18.02
2023-02-03T14:23:37.399Z,16.53
2023-02-03T14:25:14.053Z,16.10
2023-02-03T14:26:45.446Z,17.53
2023-02-03T14:28:16.869Z,22.92
2023-02-03T14:29:48.306Z,19.35
2023-02-03T14:31:19.704Z,20.12
2023-02-03T14:32:53.676Z,19.18
2023-02-03T14:34:52.550Z,17.66
2023-02-03T14:36:35.439Z,24.03
2023-02-03T14:38:17.282Z,24.77
2023-02-03T14:40:15.760Z,19.18
2023-02-03T14:41:47.406Z,23.26
2023-02-03T14:43:18.789Z,24.13
2023-02-03T14:45:34.602Z,21.86
2023-02-03T14:47:32.789Z,17.74
2023-02-03T14:49:44.413Z,23.60
2023-02-03T14:51:15.849Z,25.90
2023-02-03T14:52:47.322Z,24.96
2023-02-03T14:54:18.669Z,18.27
2023-02-03T14:55:50.054Z,23.58
2023-02-03T14:57:36.884Z,22.16
2023-02-03T15:01:40.682Z,22.85
2023-02-03T15:03:12.872Z,16.48
2023-02-03T15:04:44.200Z,17.11
2023-02-03T15:06:15.699Z,22.57
2023-02-03T15:07:47.415Z,28.39
2023-02-03T15:09:18.748Z,25.14
2023-02-03T15:10:50.067Z,21.49
2023-02-03T15:12:21.540Z,22.98
2023-02-03T15:13:53.015Z,20.92
2023-02-03T15:15:24.519Z,16.28
2023-02-03T15:16:55.945Z,19.05
2023-02-03T15:18:27.424Z,19.47
2023-02-03T15:19:58.838Z,24.39
2023-02-03T15:22:21.070Z,22.88
2023-02-03T15:23:53.133Z,21.81
2023-02-03T15:25:25.073Z,22.26
2023-02-03T15:26:56.560Z,17.97
2023-02-03T15:28:37.962Z,19.88
2023-02-03T15:30:09.450Z,19.47
2023-02-03T15:31:40.956Z,24.24
2023-02-03T15:33:12.380Z,26.48
2023-02-03T15:34:43.742Z,22.02
2023-02-03T15:36:15.243Z,22.43
2023-02-03T15:37:46.675Z,15.21
2023-02-03T15:39:18.143Z,24.98
2023-02-03T15:40:49.517Z,24.59
2023-02-03T15:42:20.925Z,23.64
2023-02-03T15:43:52.525Z,23.83
2023-02-03T15:45:23.843Z,24.02
2023-02-03T15:46:55.433Z,27.58
2023-02-03T15:48:26.845Z,25.98
2023-02-03T15:49:58.363Z,25.39
2023-02-03T15:51:29.723Z,21.62
2023-02-03T15:53:01.101Z,26.91
2023-02-03T15:54:32.389Z,21.46
2023-02-03T15:56:03.789Z,24.09
2023-02-03T15:57:35.036Z,24.31
2023-02-03T15:59:06.828Z,24.11
2023-02-03T16:00:38.131Z,28.31
2023-02-03T16:02:09.469Z,27.17
2023-02-03T16:03:41.260Z,24.60
2023-02-03T16:05:12.745Z,22.67
2023-02-03T16:06:44.201Z,24.96
2023-02-03T16:08:15.618Z,24.53
2023-02-03T16:09:47.488Z,25.71
2023-02-03T16:11:18.846Z,25.35
2023-02-03T16:12:50.132Z,18.73
2023-02-03T16:14:21.429Z,20.22
2023-02-03T16:15:52.860Z,25.89
2023-02-03T16:17:24.119Z,25.11
2023-02-03T16:18:55.540Z,25.97
2023-02-03T16:20:26.839Z,28.32
2023-02-03T16:21:58.126Z,24.82
2023-02-03T16:23:29.560Z,19.55
2023-02-03T16:25:01.014Z,20.30
2023-02-03T16:26:32.336Z,22.85
2023-02-03T16:28:03.619Z,26.39
2023-02-03T16:29:35.052Z,24.68
2023-02-03T16:31:06.455Z,25.52
2023-02-03T16:32:37.920Z,20.73
2023-02-03T16:34:09.204Z,29.60
2023-02-03T16:35:40.999Z,25.62
2023-02-03T16:37:12.452Z,22.50
2023-02-03T16:38:44.153Z,23.67
2023-02-03T16:40:16.266Z,30.11
2023-02-03T16:41:48.076Z,31.03
2023-02-03T16:43:19.320Z,30.22
2023-02-03T16:44:51.316Z,25.34
2023-02-03T16:46:22.839Z,23.34
2023-02-03T16:47:54.416Z,26.18
2023-02-03T16:49:25.912Z,28.77
2023-02-03T16:50:59.424Z,29.06
2023-02-03T16:52:31.090Z,20.15
2023-02-03T16:54:02.896Z,24.87
2023-02-03T16:55:34.590Z,28.88
2023-02-03T16:57:06.272Z,24.54
2023-02-03T16:58:37.813Z,24.61
2023-02-03T17:00:09.207Z,24.72
2023-02-03T17:01:40.638Z,27.28
2023-02-03T17:03:12.063Z,30.27
2023-02-03T17:04:43.390Z,24.89
2023-02-03T17:06:14.697Z,24.27
2023-02-03T17:07:46.111Z,26.23
2023-02-03T17:09:17.554Z,29.53
2023-02-03T17:10:48.931Z,27.15
2023-02-03T17:12:20.348Z,24.10
2023-02-03T17:14:09.428Z,24.49
2023-02-03T17:15:41.036Z,28.80
2023-02-03T17:17:17.741Z,27.86
2023-02-03T17:18:49.419Z,23.15
2023-02-03T17:20:20.677Z,26.34
2023-02-03T17:21:52.347Z,26.65
2023-02-03T17:23:24.035Z,26.57
2023-02-03T17:24:55.680Z,27.16
2023-02-03T17:26:38.285Z,24.21
2023-02-03T17:28:54.615Z,23.91
2023-02-03T17:30:26.402Z,22.85
2023-02-03T17:31:57.880Z,28.14
2023-02-03T17:33:29.285Z,30.58
2023-02-03T17:35:00.811Z,28.09
2023-02-03T17:36:32.472Z,27.21
2023-02-03T17:38:04.159Z,23.08
2023-02-03T17:54:35.995Z,25.64
2023-02-03T17:56:07.774Z,27.01
2023-02-03T17:57:39.383Z,28.19
2023-02-03T17:59:10.603Z,27.92
2023-02-03T18:01:15.755Z,28.82
2023-02-03T18:02:47.490Z,29.90
2023-02-03T18:04:19.099Z,31.93
2023-02-03T18:05:50.716Z,30.47
2023-02-03T18:07:22.502Z,28.90
2023-02-03T18:08:53.917Z,28.07
2023-02-03T18:10:25.326Z,28.73
2023-02-03T18:11:56.682Z,26.71
2023-02-03T18:13:27.957Z,20.60
2023-02-03T18:15:22.650Z,25.77
2023-02-03T18:16:56.463Z,23.66
2023-02-03T18:18:33.367Z,28.23
2023-02-03T18:20:05.064Z,30.70
2023-02-03T18:23:33.563Z,28.97
2023-02-03T18:25:05.084Z,27.95
2023-02-03T18:26:41.720Z,29.76
2023-02-03T18:28:13.281Z,24.36
2023-02-03T18:29:44.883Z,26.60
2023-02-03T18:31:16.464Z,30.51
2023-02-03T18:32:48.002Z,25.50
2023-02-03T18:34:20.055Z,24.33
2023-02-03T18:35:51.670Z,25.44
2023-02-03T18:37:23.247Z,25.35
2023-02-03T18:38:54.706Z,26.77
2023-02-03T18:40:26.247Z,28.78
2023-02-03T18:42:02.613Z,26.90
2023-02-03T18:43:33.950Z,22.65
2023-02-03T18:45:05.341Z,28.99
2023-02-03T18:46:36.837Z,24.31
2023-02-03T18:48:08.112Z,25.56
2023-02-03T18:49:39.333Z,25.42
2023-02-03T18:51:10.623Z,24.21
2023-02-03T18:52:42.033Z,27.00
2023-02-03T18:54:13.421Z,28.42
2023-02-03T18:55:44.716Z,26.70
2023-02-03T18:57:16.228Z,23.21
2023-02-03T18:58:47.695Z,21.04
2023-02-03T19:00:19.022Z,28.40
2023-02-03T19:01:50.407Z,28.79
2023-02-03T19:03:22.068Z,27.98
2023-02-03T19:04:53.555Z,25.87
2023-02-03T19:06:25.044Z,27.94
2023-02-03T19:07:57.065Z,27.06
2023-02-03T19:09:28.469Z,31.04
2023-02-03T19:10:59.720Z,31.21
2023-02-03T19:12:30.996Z,26.19
2023-02-03T19:14:05.393Z,28.45
2023-02-03T19:15:38.940Z,24.11
2023-02-03T19:17:10.312Z,26.15
2023-02-03T19:18:41.794Z,29.17
2023-02-03T19:20:13.042Z,29.41
2023-02-03T19:21:45.453Z,20.34
2023-02-03T19:23:16.761Z,25.77
2023-02-03T19:24:48.163Z,23.13
2023-02-03T19:26:19.428Z,29.83
2023-02-03T19:27:51.157Z,28.59
2023-02-03T19:29:22.658Z,28.44
2023-02-03T19:30:59.924Z,27.89
2023-02-03T19:32:34.324Z,30.64
2023-02-03T19:34:05.857Z,25.95
2023-02-03T19:35:37.153Z,27.73
2023-02-03T19:37:08.584Z,24.27
2023-02-03T19:38:39.896Z,27.44
2023-02-03T19:40:11.174Z,27.88
2023-02-03T19:41:42.434Z,24.72
2023-02-03T19:43:15.770Z,27.95
2023-02-03T19:44:47.106Z,25.06
2023-02-03T19:46:18.655Z,27.16
2023-02-03T19:47:50.001Z,23.54
2023-02-03T19:49:21.393Z,26.12
2023-02-03T19:50:53.072Z,25.74
2023-02-03T19:52:24.334Z,25.14
2023-02-03T19:53:55.904Z,23.72
2023-02-03T19:55:27.237Z,28.60
2023-02-03T19:56:58.562Z,29.12
2023-02-03T19:58:29.857Z,25.26
2023-02-03T20:00:01.247Z,28.42
2023-02-03T20:01:32.579Z,28.43
2023-02-03T20:03:03.977Z,32.57
2023-02-03T20:04:35.361Z,26.80
2023-02-03T20:06:06.629Z,25.86
2023-02-03T20:07:39.337Z,22.24
2023-02-03T20:09:10.697Z,19.66
2023-02-03T20:10:42.197Z,24.50
2023-02-03T20:12:13.488Z,23.15
2023-02-03T20:13:45.077Z,21.94
2023-02-03T20:15:16.526Z,27.94
2023-02-03T20:16:47.891Z,27.95
2023-02-03T20:18:19.205Z,27.10
2023-02-03T20:19:50.833Z,26.23
2023-02-03T20:21:38.134Z,27.15
2023-02-03T20:23:09.346Z,26.84
2023-02-03T20:24:40.576Z,27.46
2023-02-03T20:26:13.993Z,21.69
2023-02-03T20:27:45.603Z,28.25
2023-02-03T20:29:17.132Z,27.20
2023-02-03T20:30:48.793Z,29.06
2023-02-03T20:32:22.384Z,18.54
2023-02-03T20:33:53.877Z,22.87
2023-02-03T20:35:25.254Z,23.80